sensor_id;sensor_type;location;lat;lon;timestamp;P1;durP1;ratioP1;P2;durP2;ratioP2
66723;SDS011;53635;48.212;11.530;2022-07-22T00:01:01;20.85;;;15.10;;
66723;SDS011;53635;48.212;11.530;2022-07-22T00:03:26;19.02;;;14.77;;
66723;SDS011;53635;48.212;11.530;2022-07-22T00:05:52;16.30;;;13.80;;
66723;SDS011;53635;48.212;11.530;2022-07-22T00:08:17;18.27;;;15.00;;
66723;SDS011;53635;48.212;11.530;2022-07-22T00:10:42;17.27;;;14.35;;
66723;SDS011;53635;48.212;11.530;2022-07-22T00:13:08;18.48;;;14.18;;
66723;SDS011;53635;48.212;11.530;2022-07-22T00:15:33;18.55;;;14.02;;
66723;SDS011;53635;48.212;11.530;2022-07-22T00:17:58;17.40;;;14.40;;
66723;SDS011;53635;48.212;11.530;2022-07-22T00:20:24;16.92;;;14.68;;
66723;SDS011;53635;48.212;11.530;2022-07-22T00:22:49;18.63;;;14.60;;
66723;SDS011;53635;48.212;11.530;2022-07-22T00:25:14;18.58;;;14.88;;
66723;SDS011;53635;48.212;11.530;2022-07-22T00:27:40;18.42;;;14.88;;
66723;SDS011;53635;48.212;11.530;2022-07-22T00:30:05;17.20;;;14.10;;
66723;SDS011;53635;48.212;11.530;2022-07-22T00:32:31;19.30;;;14.55;;
66723;SDS011;53635;48.212;11.530;2022-07-22T00:34:56;19.25;;;14.98;;
66723;SDS011;53635;48.212;11.530;2022-07-22T00:37:21;21.85;;;16.02;;
66723;SDS011;53635;48.212;11.530;2022-07-22T00:39:46;17.95;;;15.48;;
66723;SDS011;53635;48.212;11.530;2022-07-22T00:42:13;22.80;;;15.27;;
66723;SDS011;53635;48.212;11.530;2022-07-22T00:44:38;22.80;;;16.35;;
66723;SDS011;53635;48.212;11.530;2022-07-22T00:47:03;20.77;;;15.02;;
66723;SDS011;53635;48.212;11.530;2022-07-22T00:49:29;19.67;;;15.02;;
66723;SDS011;53635;48.212;11.530;2022-07-22T00:51:54;18.38;;;14.40;;
66723;SDS011;53635;48.212;11.530;2022-07-22T00:54:20;19.25;;;15.68;;
66723;SDS011;53635;48.212;11.530;2022-07-22T00:56:45;18.65;;;14.90;;
66723;SDS011;53635;48.212;11.530;2022-07-22T00:59:11;17.73;;;14.52;;
66723;SDS011;53635;48.212;11.530;2022-07-22T01:01:36;16.90;;;14.75;;
66723;SDS011;53635;48.212;11.530;2022-07-22T01:04:02;17.85;;;14.32;;
66723;SDS011;53635;48.212;11.530;2022-07-22T01:06:28;19.10;;;14.57;;
66723;SDS011;53635;48.212;11.530;2022-07-22T01:08:54;18.58;;;14.77;;
66723;SDS011;53635;48.212;11.530;2022-07-22T01:11:20;17.60;;;14.95;;
66723;SDS011;53635;48.212;11.530;2022-07-22T01:13:45;17.38;;;14.63;;
66723;SDS011;53635;48.212;11.530;2022-07-22T01:16:11;20.42;;;14.75;;
66723;SDS011;53635;48.212;11.530;2022-07-22T01:18:38;15.77;;;13.60;;
66723;SDS011;53635;48.212;11.530;2022-07-22T01:21:04;17.27;;;14.32;;
66723;SDS011;53635;48.212;11.530;2022-07-22T01:23:30;17.35;;;14.65;;
66723;SDS011;53635;48.212;11.530;2022-07-22T01:25:55;17.60;;;14.43;;
66723;SDS011;53635;48.212;11.530;2022-07-22T01:28:21;18.35;;;14.45;;
66723;SDS011;53635;48.212;11.530;2022-07-22T01:30:46;17.80;;;14.20;;
66723;SDS011;53635;48.212;11.530;2022-07-22T01:33:11;15.90;;;13.50;;
66723;SDS011;53635;48.212;11.530;2022-07-22T01:35:37;16.00;;;13.25;;
66723;SDS011;53635;48.212;11.530;2022-07-22T01:38:02;18.27;;;13.82;;
66723;SDS011;53635;48.212;11.530;2022-07-22T01:40:27;15.18;;;13.57;;
66723;SDS011;53635;48.212;11.530;2022-07-22T01:42:53;16.75;;;14.10;;
66723;SDS011;53635;48.212;11.530;2022-07-22T01:45:18;17.40;;;13.98;;
66723;SDS011;53635;48.212;11.530;2022-07-22T01:47:43;18.38;;;14.82;;
66723;SDS011;53635;48.212;11.530;2022-07-22T01:50:09;16.40;;;14.50;;
66723;SDS011;53635;48.212;11.530;2022-07-22T01:52:36;16.42;;;13.80;;
66723;SDS011;53635;48.212;11.530;2022-07-22T01:55:01;16.85;;;14.60;;
66723;SDS011;53635;48.212;11.530;2022-07-22T01:57:27;19.08;;;14.88;;
66723;SDS011;53635;48.212;11.530;2022-07-22T01:59:52;19.00;;;14.80;;
66723;SDS011;53635;48.212;11.530;2022-07-22T02:02:17;17.58;;;14.52;;
66723;SDS011;53635;48.212;11.530;2022-07-22T02:04:43;17.63;;;14.60;;
66723;SDS011;53635;48.212;11.530;2022-07-22T02:07:08;17.58;;;14.18;;
66723;SDS011;53635;48.212;11.530;2022-07-22T02:09:33;19.08;;;14.52;;
66723;SDS011;53635;48.212;11.530;2022-07-22T02:11:58;19.48;;;14.35;;
66723;SDS011;53635;48.212;11.530;2022-07-22T02:14:23;19.13;;;14.20;;
66723;SDS011;53635;48.212;11.530;2022-07-22T02:16:49;16.63;;;13.52;;
66723;SDS011;53635;48.212;11.530;2022-07-22T02:19:14;16.55;;;13.98;;
66723;SDS011;53635;48.212;11.530;2022-07-22T02:21:39;16.52;;;13.52;;
66723;SDS011;53635;48.212;11.530;2022-07-22T02:24:05;15.50;;;13.07;;
66723;SDS011;53635;48.212;11.530;2022-07-22T02:26:30;15.55;;;12.95;;
66723;SDS011;53635;48.212;11.530;2022-07-22T02:28:55;16.05;;;12.85;;
66723;SDS011;53635;48.212;11.530;2022-07-22T02:31:21;14.15;;;12.57;;
66723;SDS011;53635;48.212;11.530;2022-07-22T02:33:46;15.63;;;12.90;;
66723;SDS011;53635;48.212;11.530;2022-07-22T02:36:12;14.98;;;12.55;;
66723;SDS011;53635;48.212;11.530;2022-07-22T02:38:37;15.43;;;13.02;;
66723;SDS011;53635;48.212;11.530;2022-07-22T02:41:02;16.00;;;13.32;;
66723;SDS011;53635;48.212;11.530;2022-07-22T02:43:27;16.08;;;13.10;;
66723;SDS011;53635;48.212;11.530;2022-07-22T02:45:53;16.70;;;13.95;;
66723;SDS011;53635;48.212;11.530;2022-07-22T02:48:18;16.42;;;13.40;;
66723;SDS011;53635;48.212;11.530;2022-07-22T02:50:47;16.58;;;12.75;;
66723;SDS011;53635;48.212;11.530;2022-07-22T02:53:12;18.60;;;13.68;;
66723;SDS011;53635;48.212;11.530;2022-07-22T02:55:37;17.63;;;13.77;;
66723;SDS011;53635;48.212;11.530;2022-07-22T02:58:06;15.80;;;12.77;;
66723;SDS011;53635;48.212;11.530;2022-07-22T03:00:32;16.42;;;12.77;;
66723;SDS011;53635;48.212;11.530;2022-07-22T03:02:58;16.08;;;13.75;;
66723;SDS011;53635;48.212;11.530;2022-07-22T03:05:23;16.67;;;13.48;;
66723;SDS011;53635;48.212;11.530;2022-07-22T03:07:48;15.90;;;13.27;;
66723;SDS011;53635;48.212;11.530;2022-07-22T03:10:14;17.02;;;12.93;;
66723;SDS011;53635;48.212;11.530;2022-07-22T03:12:39;17.00;;;13.45;;
66723;SDS011;53635;48.212;11.530;2022-07-22T03:15:05;16.25;;;13.07;;
66723;SDS011;53635;48.212;11.530;2022-07-22T03:17:35;16.42;;;13.00;;
66723;SDS011;53635;48.212;11.530;2022-07-22T03:20:04;15.75;;;12.68;;
66723;SDS011;53635;48.212;11.530;2022-07-22T03:22:30;15.13;;;12.32;;
66723;SDS011;53635;48.212;11.530;2022-07-22T03:24:55;15.25;;;13.20;;
66723;SDS011;53635;48.212;11.530;2022-07-22T03:27:20;17.52;;;13.20;;
66723;SDS011;53635;48.212;11.530;2022-07-22T03:29:46;15.60;;;13.25;;
66723;SDS011;53635;48.212;11.530;2022-07-22T03:32:11;15.98;;;13.10;;
66723;SDS011;53635;48.212;11.530;2022-07-22T03:34:36;14.32;;;12.77;;
66723;SDS011;53635;48.212;11.530;2022-07-22T03:37:02;14.45;;;12.30;;
66723;SDS011;53635;48.212;11.530;2022-07-22T03:39:27;15.88;;;12.85;;
66723;SDS011;53635;48.212;11.530;2022-07-22T03:41:52;17.55;;;12.95;;
66723;SDS011;53635;48.212;11.530;2022-07-22T03:44:17;17.45;;;12.30;;
66723;SDS011;53635;48.212;11.530;2022-07-22T03:46:43;15.15;;;12.52;;
66723;SDS011;53635;48.212;11.530;2022-07-22T03:49:08;15.38;;;12.30;;
66723;SDS011;53635;48.212;11.530;2022-07-22T03:51:33;15.25;;;12.20;;
66723;SDS011;53635;48.212;11.530;2022-07-22T03:53:58;14.23;;;12.00;;
66723;SDS011;53635;48.212;11.530;2022-07-22T03:56:24;13.60;;;11.70;;
66723;SDS011;53635;48.212;11.530;2022-07-22T03:58:49;14.27;;;11.90;;
66723;SDS011;53635;48.212;11.530;2022-07-22T04:01:14;15.10;;;12.60;;
66723;SDS011;53635;48.212;11.530;2022-07-22T04:03:39;16.73;;;12.05;;
66723;SDS011;53635;48.212;11.530;2022-07-22T04:06:05;15.68;;;12.82;;
66723;SDS011;53635;48.212;11.530;2022-07-22T04:08:31;15.80;;;12.70;;
66723;SDS011;53635;48.212;11.530;2022-07-22T04:10:56;15.50;;;13.13;;
66723;SDS011;53635;48.212;11.530;2022-07-22T04:13:22;16.38;;;13.15;;
66723;SDS011;53635;48.212;11.530;2022-07-22T04:15:47;15.85;;;12.95;;
66723;SDS011;53635;48.212;11.530;2022-07-22T04:18:12;15.50;;;12.93;;
66723;SDS011;53635;48.212;11.530;2022-07-22T04:20:38;15.43;;;12.98;;
66723;SDS011;53635;48.212;11.530;2022-07-22T04:23:03;16.95;;;12.65;;
66723;SDS011;53635;48.212;11.530;2022-07-22T04:25:28;17.70;;;13.40;;
66723;SDS011;53635;48.212;11.530;2022-07-22T04:27:54;15.90;;;12.38;;
66723;SDS011;53635;48.212;11.530;2022-07-22T04:30:19;14.35;;;12.70;;
66723;SDS011;53635;48.212;11.530;2022-07-22T04:32:45;17.05;;;13.75;;
66723;SDS011;53635;48.212;11.530;2022-07-22T04:35:10;16.45;;;13.45;;
66723;SDS011;53635;48.212;11.530;2022-07-22T04:37:35;16.65;;;13.60;;
66723;SDS011;53635;48.212;11.530;2022-07-22T04:40:00;17.70;;;13.85;;
66723;SDS011;53635;48.212;11.530;2022-07-22T04:42:26;15.20;;;13.38;;
66723;SDS011;53635;48.212;11.530;2022-07-22T04:44:51;17.30;;;14.00;;
66723;SDS011;53635;48.212;11.530;2022-07-22T04:47:16;17.52;;;14.18;;
66723;SDS011;53635;48.212;11.530;2022-07-22T04:49:41;17.42;;;13.48;;
66723;SDS011;53635;48.212;11.530;2022-07-22T04:52:07;17.30;;;14.38;;
66723;SDS011;53635;48.212;11.530;2022-07-22T04:54:32;16.23;;;13.60;;
66723;SDS011;53635;48.212;11.530;2022-07-22T04:56:57;16.35;;;13.82;;
66723;SDS011;53635;48.212;11.530;2022-07-22T04:59:23;18.52;;;14.20;;
66723;SDS011;53635;48.212;11.530;2022-07-22T05:01:48;18.10;;;14.20;;
66723;SDS011;53635;48.212;11.530;2022-07-22T05:04:13;19.85;;;14.93;;
66723;SDS011;53635;48.212;11.530;2022-07-22T05:06:39;19.83;;;15.13;;
66723;SDS011;53635;48.212;11.530;2022-07-22T05:09:04;19.05;;;15.10;;
66723;SDS011;53635;48.212;11.530;2022-07-22T05:11:29;18.40;;;15.00;;
66723;SDS011;53635;48.212;11.530;2022-07-22T05:13:55;18.40;;;15.43;;
66723;SDS011;53635;48.212;11.530;2022-07-22T05:16:20;19.80;;;15.43;;
66723;SDS011;53635;48.212;11.530;2022-07-22T05:18:45;24.10;;;15.35;;
66723;SDS011;53635;48.212;11.530;2022-07-22T05:21:11;19.83;;;15.60;;
66723;SDS011;53635;48.212;11.530;2022-07-22T05:23:36;19.25;;;15.68;;
66723;SDS011;53635;48.212;11.530;2022-07-22T05:26:01;19.98;;;15.38;;
66723;SDS011;53635;48.212;11.530;2022-07-22T05:28:28;20.40;;;15.73;;
66723;SDS011;53635;48.212;11.530;2022-07-22T05:30:54;21.73;;;16.05;;
66723;SDS011;53635;48.212;11.530;2022-07-22T05:33:19;23.40;;;18.30;;
66723;SDS011;53635;48.212;11.530;2022-07-22T05:35:44;21.17;;;17.48;;
66723;SDS011;53635;48.212;11.530;2022-07-22T05:38:09;23.75;;;17.08;;
66723;SDS011;53635;48.212;11.530;2022-07-22T05:40:35;21.40;;;16.52;;
66723;SDS011;53635;48.212;11.530;2022-07-22T05:43:00;18.25;;;15.25;;
66723;SDS011;53635;48.212;11.530;2022-07-22T05:45:26;19.95;;;15.55;;
66723;SDS011;53635;48.212;11.530;2022-07-22T05:47:51;20.00;;;15.30;;
66723;SDS011;53635;48.212;11.530;2022-07-22T05:50:16;22.00;;;15.60;;
66723;SDS011;53635;48.212;11.530;2022-07-22T05:52:42;19.30;;;15.00;;
66723;SDS011;53635;48.212;11.530;2022-07-22T05:55:07;19.55;;;14.20;;
66723;SDS011;53635;48.212;11.530;2022-07-22T05:57:33;18.20;;;13.98;;
66723;SDS011;53635;48.212;11.530;2022-07-22T05:59:58;17.77;;;14.20;;
66723;SDS011;53635;48.212;11.530;2022-07-22T06:02:24;19.60;;;13.35;;
66723;SDS011;53635;48.212;11.530;2022-07-22T06:04:49;18.73;;;13.85;;
66723;SDS011;53635;48.212;11.530;2022-07-22T06:07:15;18.33;;;15.02;;
66723;SDS011;53635;48.212;11.530;2022-07-22T06:09:40;20.60;;;14.88;;
66723;SDS011;53635;48.212;11.530;2022-07-22T06:12:05;20.17;;;13.20;;
66723;SDS011;53635;48.212;11.530;2022-07-22T06:14:31;16.40;;;13.45;;
66723;SDS011;53635;48.212;11.530;2022-07-22T06:16:57;17.13;;;13.18;;
66723;SDS011;53635;48.212;11.530;2022-07-22T06:19:22;18.10;;;12.68;;
66723;SDS011;53635;48.212;11.530;2022-07-22T06:21:49;18.67;;;12.95;;
66723;SDS011;53635;48.212;11.530;2022-07-22T06:24:14;16.80;;;13.05;;
66723;SDS011;53635;48.212;11.530;2022-07-22T06:26:39;17.65;;;12.57;;
66723;SDS011;53635;48.212;11.530;2022-07-22T06:29:05;18.52;;;13.20;;
66723;SDS011;53635;48.212;11.530;2022-07-22T06:31:30;18.70;;;11.60;;
66723;SDS011;53635;48.212;11.530;2022-07-22T06:33:55;16.08;;;11.88;;
66723;SDS011;53635;48.212;11.530;2022-07-22T06:36:21;16.23;;;12.50;;
66723;SDS011;53635;48.212;11.530;2022-07-22T06:38:46;20.25;;;13.90;;
66723;SDS011;53635;48.212;11.530;2022-07-22T06:41:11;19.02;;;12.30;;
66723;SDS011;53635;48.212;11.530;2022-07-22T06:43:38;17.65;;;11.88;;
66723;SDS011;53635;48.212;11.530;2022-07-22T06:46:03;16.35;;;11.82;;
66723;SDS011;53635;48.212;11.530;2022-07-22T06:48:28;14.13;;;11.13;;
66723;SDS011;53635;48.212;11.530;2022-07-22T06:50:54;16.13;;;11.13;;
66723;SDS011;53635;48.212;11.530;2022-07-22T06:53:19;15.52;;;11.60;;
66723;SDS011;53635;48.212;11.530;2022-07-22T06:55:45;15.85;;;11.82;;
66723;SDS011;53635;48.212;11.530;2022-07-22T06:58:10;18.50;;;13.18;;
66723;SDS011;53635;48.212;11.530;2022-07-22T07:00:36;17.40;;;12.25;;
66723;SDS011;53635;48.212;11.530;2022-07-22T07:03:01;14.95;;;11.30;;
66723;SDS011;53635;48.212;11.530;2022-07-22T07:05:26;13.90;;;11.23;;
66723;SDS011;53635;48.212;11.530;2022-07-22T07:07:53;15.27;;;10.52;;
66723;SDS011;53635;48.212;11.530;2022-07-22T07:10:18;20.42;;;11.48;;
66723;SDS011;53635;48.212;11.530;2022-07-22T07:12:44;17.75;;;11.57;;
66723;SDS011;53635;48.212;11.530;2022-07-22T07:15:09;14.73;;;11.32;;
66723;SDS011;53635;48.212;11.530;2022-07-22T07:17:34;17.13;;;12.05;;
66723;SDS011;53635;48.212;11.530;2022-07-22T07:20:00;16.50;;;10.27;;
66723;SDS011;53635;48.212;11.530;2022-07-22T07:22:25;14.77;;;10.65;;
66723;SDS011;53635;48.212;11.530;2022-07-22T07:24:50;13.00;;;9.48;;
66723;SDS011;53635;48.212;11.530;2022-07-22T07:27:16;16.40;;;10.45;;
66723;SDS011;53635;48.212;11.530;2022-07-22T07:29:41;15.40;;;9.93;;
66723;SDS011;53635;48.212;11.530;2022-07-22T07:32:07;12.80;;;9.77;;
66723;SDS011;53635;48.212;11.530;2022-07-22T07:34:32;12.98;;;9.00;;
66723;SDS011;53635;48.212;11.530;2022-07-22T07:36:57;13.32;;;10.00;;
66723;SDS011;53635;48.212;11.530;2022-07-22T07:39:23;15.20;;;11.10;;
66723;SDS011;53635;48.212;11.530;2022-07-22T07:41:48;12.32;;;8.82;;
66723;SDS011;53635;48.212;11.530;2022-07-22T07:44:13;13.02;;;8.82;;
66723;SDS011;53635;48.212;11.530;2022-07-22T07:46:38;12.32;;;8.68;;
66723;SDS011;53635;48.212;11.530;2022-07-22T07:49:04;12.85;;;8.65;;
66723;SDS011;53635;48.212;11.530;2022-07-22T07:51:29;13.15;;;8.88;;
66723;SDS011;53635;48.212;11.530;2022-07-22T07:53:54;15.50;;;8.15;;
66723;SDS011;53635;48.212;11.530;2022-07-22T07:56:20;10.65;;;7.82;;
66723;SDS011;53635;48.212;11.530;2022-07-22T07:58:45;15.63;;;8.20;;
66723;SDS011;53635;48.212;11.530;2022-07-22T08:01:10;11.70;;;7.72;;
66723;SDS011;53635;48.212;11.530;2022-07-22T08:03:35;12.68;;;8.05;;
66723;SDS011;53635;48.212;11.530;2022-07-22T08:06:01;12.88;;;8.25;;
66723;SDS011;53635;48.212;11.530;2022-07-22T08:08:26;13.32;;;7.70;;
66723;SDS011;53635;48.212;11.530;2022-07-22T08:10:51;10.40;;;7.32;;
66723;SDS011;53635;48.212;11.530;2022-07-22T08:13:17;10.32;;;7.35;;
66723;SDS011;53635;48.212;11.530;2022-07-22T08:15:42;12.68;;;6.75;;
66723;SDS011;53635;48.212;11.530;2022-07-22T08:18:07;10.38;;;6.38;;
66723;SDS011;53635;48.212;11.530;2022-07-22T08:20:33;12.63;;;6.90;;
66723;SDS011;53635;48.212;11.530;2022-07-22T08:22:58;10.70;;;6.57;;
66723;SDS011;53635;48.212;11.530;2022-07-22T08:25:23;10.70;;;6.93;;
66723;SDS011;53635;48.212;11.530;2022-07-22T08:27:49;10.95;;;6.95;;
66723;SDS011;53635;48.212;11.530;2022-07-22T08:30:14;13.75;;;8.07;;
66723;SDS011;53635;48.212;11.530;2022-07-22T08:32:39;12.30;;;6.22;;
66723;SDS011;53635;48.212;11.530;2022-07-22T08:35:05;9.98;;;5.70;;
66723;SDS011;53635;48.212;11.530;2022-07-22T08:37:30;9.02;;;6.50;;
66723;SDS011;53635;48.212;11.530;2022-07-22T08:39:56;12.00;;;9.93;;
66723;SDS011;53635;48.212;11.530;2022-07-22T08:42:23;9.57;;;6.28;;
66723;SDS011;53635;48.212;11.530;2022-07-22T08:44:49;8.13;;;5.70;;
66723;SDS011;53635;48.212;11.530;2022-07-22T08:47:15;10.13;;;5.95;;
66723;SDS011;53635;48.212;11.530;2022-07-22T08:49:40;9.32;;;5.93;;
66723;SDS011;53635;48.212;11.530;2022-07-22T08:52:05;9.80;;;6.15;;
66723;SDS011;53635;48.212;11.530;2022-07-22T08:54:31;8.27;;;5.93;;
66723;SDS011;53635;48.212;11.530;2022-07-22T08:56:56;8.15;;;5.75;;
66723;SDS011;53635;48.212;11.530;2022-07-22T08:59:21;9.98;;;5.88;;
66723;SDS011;53635;48.212;11.530;2022-07-22T09:06:52;14.40;;;11.33;;
66723;SDS011;53635;48.212;11.530;2022-07-22T09:09:18;8.63;;;5.80;;
66723;SDS011;53635;48.212;11.530;2022-07-22T09:12:02;8.18;;;5.35;;
66723;SDS011;53635;48.212;11.530;2022-07-22T09:14:28;9.60;;;6.32;;
66723;SDS011;53635;48.212;11.530;2022-07-22T09:17:07;10.73;;;5.97;;
66723;SDS011;53635;48.212;11.530;2022-07-22T09:19:46;7.97;;;5.75;;
66723;SDS011;53635;48.212;11.530;2022-07-22T09:22:11;8.83;;;6.13;;
66723;SDS011;53635;48.212;11.530;2022-07-22T09:24:37;8.82;;;5.78;;
66723;SDS011;53635;48.212;11.530;2022-07-22T09:27:02;8.67;;;5.53;;
66723;SDS011;53635;48.212;11.530;2022-07-22T09:29:27;9.73;;;5.72;;
66723;SDS011;53635;48.212;11.530;2022-07-22T09:31:53;11.57;;;5.37;;
66723;SDS011;53635;48.212;11.530;2022-07-22T09:34:28;11.07;;;5.80;;
66723;SDS011;53635;48.212;11.530;2022-07-22T09:36:57;9.65;;;6.00;;
66723;SDS011;53635;48.212;11.530;2022-07-22T09:39:26;8.50;;;5.60;;
66723;SDS011;53635;48.212;11.530;2022-07-22T09:44:23;8.20;;;5.28;;
66723;SDS011;53635;48.212;11.530;2022-07-22T09:46:49;11.63;;;5.13;;
66723;SDS011;53635;48.212;11.530;2022-07-22T09:49:29;13.00;;;5.83;;
66723;SDS011;53635;48.212;11.530;2022-07-22T09:51:54;12.63;;;5.90;;
66723;SDS011;53635;48.212;11.530;2022-07-22T09:54:20;6.50;;;4.70;;
66723;SDS011;53635;48.212;11.530;2022-07-22T09:56:46;7.45;;;5.00;;
66723;SDS011;53635;48.212;11.530;2022-07-22T09:59:12;11.43;;;7.65;;
66723;SDS011;53635;48.212;11.530;2022-07-22T10:01:37;8.65;;;5.00;;
66723;SDS011;53635;48.212;11.530;2022-07-22T10:04:03;10.02;;;4.80;;
66723;SDS011;53635;48.212;11.530;2022-07-22T10:06:30;8.48;;;4.45;;
66723;SDS011;53635;48.212;11.530;2022-07-22T10:08:56;8.88;;;4.90;;
66723;SDS011;53635;48.212;11.530;2022-07-22T10:11:21;7.95;;;4.70;;
66723;SDS011;53635;48.212;11.530;2022-07-22T10:13:47;10.23;;;4.80;;
66723;SDS011;53635;48.212;11.530;2022-07-22T10:16:12;7.35;;;4.50;;
66723;SDS011;53635;48.212;11.530;2022-07-22T10:18:38;8.02;;;4.60;;
66723;SDS011;53635;48.212;11.530;2022-07-22T10:21:05;10.80;;;4.78;;
66723;SDS011;53635;48.212;11.530;2022-07-22T10:23:30;7.32;;;4.53;;
66723;SDS011;53635;48.212;11.530;2022-07-22T10:25:57;7.50;;;4.97;;
66723;SDS011;53635;48.212;11.530;2022-07-22T10:28:33;9.93;;;4.60;;
66723;SDS011;53635;48.212;11.530;2022-07-22T10:31:21;8.30;;;4.85;;
66723;SDS011;53635;48.212;11.530;2022-07-22T10:33:47;7.07;;;5.13;;
66723;SDS011;53635;48.212;11.530;2022-07-22T10:36:12;6.50;;;5.03;;
66723;SDS011;53635;48.212;11.530;2022-07-22T10:38:38;7.43;;;4.25;;
66723;SDS011;53635;48.212;11.530;2022-07-22T10:41:30;7.47;;;4.30;;
66723;SDS011;53635;48.212;11.530;2022-07-22T10:43:58;5.93;;;3.97;;
66723;SDS011;53635;48.212;11.530;2022-07-22T10:46:41;6.13;;;4.10;;
66723;SDS011;53635;48.212;11.530;2022-07-22T10:49:08;7.05;;;4.22;;
66723;SDS011;53635;48.212;11.530;2022-07-22T10:51:35;5.50;;;3.80;;
66723;SDS011;53635;48.212;11.530;2022-07-22T10:54:00;9.80;;;4.50;;
66723;SDS011;53635;48.212;11.530;2022-07-22T10:56:27;11.75;;;4.70;;
66723;SDS011;53635;48.212;11.530;2022-07-22T10:58:57;6.57;;;3.70;;
66723;SDS011;53635;48.212;11.530;2022-07-22T11:01:24;12.50;;;4.00;;
66723;SDS011;53635;48.212;11.530;2022-07-22T11:03:50;11.18;;;4.25;;
66723;SDS011;53635;48.212;11.530;2022-07-22T11:06:29;7.72;;;4.20;;
66723;SDS011;53635;48.212;11.530;2022-07-22T11:08:59;7.68;;;4.05;;
66723;SDS011;53635;48.212;11.530;2022-07-22T11:11:57;6.57;;;3.83;;
66723;SDS011;53635;48.212;11.530;2022-07-22T11:16:56;8.02;;;3.30;;
66723;SDS011;53635;48.212;11.530;2022-07-22T11:19:22;6.55;;;3.10;;
66723;SDS011;53635;48.212;11.530;2022-07-22T11:21:51;4.93;;;3.22;;
66723;SDS011;53635;48.212;11.530;2022-07-22T11:24:17;5.32;;;3.30;;
66723;SDS011;53635;48.212;11.530;2022-07-22T11:26:44;6.05;;;3.40;;
66723;SDS011;53635;48.212;11.530;2022-07-22T11:29:09;5.78;;;3.38;;
66723;SDS011;53635;48.212;11.530;2022-07-22T11:31:36;4.90;;;3.05;;
66723;SDS011;53635;48.212;11.530;2022-07-22T11:34:05;5.70;;;3.13;;
66723;SDS011;53635;48.212;11.530;2022-07-22T11:36:32;5.72;;;3.15;;
66723;SDS011;53635;48.212;11.530;2022-07-22T11:38:57;5.40;;;3.38;;
66723;SDS011;53635;48.212;11.530;2022-07-22T11:41:23;5.83;;;3.17;;
66723;SDS011;53635;48.212;11.530;2022-07-22T11:43:49;6.07;;;3.20;;
66723;SDS011;53635;48.212;11.530;2022-07-22T11:46:17;7.25;;;3.20;;
66723;SDS011;53635;48.212;11.530;2022-07-22T11:48:43;5.68;;;3.30;;
66723;SDS011;53635;48.212;11.530;2022-07-22T11:51:10;5.63;;;3.17;;
66723;SDS011;53635;48.212;11.530;2022-07-22T11:53:36;3.95;;;2.90;;
66723;SDS011;53635;48.212;11.530;2022-07-22T11:56:02;7.28;;;3.40;;
66723;SDS011;53635;48.212;11.530;2022-07-22T12:00:59;7.18;;;3.30;;
66723;SDS011;53635;48.212;11.530;2022-07-22T12:03:24;6.07;;;3.07;;
66723;SDS011;53635;48.212;11.530;2022-07-22T12:05:50;6.65;;;3.42;;
66723;SDS011;53635;48.212;11.530;2022-07-22T12:08:15;6.85;;;3.40;;
66723;SDS011;53635;48.212;11.530;2022-07-22T12:10:41;5.50;;;3.50;;
66723;SDS011;53635;48.212;11.530;2022-07-22T12:13:10;4.88;;;3.40;;
66723;SDS011;53635;48.212;11.530;2022-07-22T12:15:35;7.25;;;3.53;;
66723;SDS011;53635;48.212;11.530;2022-07-22T12:20:44;5.82;;;3.60;;
66723;SDS011;53635;48.212;11.530;2022-07-22T12:23:10;4.75;;;3.55;;
66723;SDS011;53635;48.212;11.530;2022-07-22T12:25:48;10.90;;;5.15;;
66723;SDS011;53635;48.212;11.530;2022-07-22T12:30:39;14.10;;;3.73;;
66723;SDS011;53635;48.212;11.530;2022-07-22T12:33:04;6.13;;;3.43;;
66723;SDS011;53635;48.212;11.530;2022-07-22T12:35:30;8.00;;;3.90;;
66723;SDS011;53635;48.212;11.530;2022-07-22T12:37:55;5.22;;;3.60;;
66723;SDS011;53635;48.212;11.530;2022-07-22T12:40:21;7.27;;;3.60;;
66723;SDS011;53635;48.212;11.530;2022-07-22T12:42:59;9.63;;;3.83;;
66723;SDS011;53635;48.212;11.530;2022-07-22T12:45:25;7.10;;;4.07;;
66723;SDS011;53635;48.212;11.530;2022-07-22T12:47:51;6.63;;;3.80;;
66723;SDS011;53635;48.212;11.530;2022-07-22T12:55:33;7.32;;;4.07;;
66723;SDS011;53635;48.212;11.530;2022-07-22T12:58:00;9.90;;;3.85;;
66723;SDS011;53635;48.212;11.530;2022-07-22T13:00:26;8.10;;;3.60;;
66723;SDS011;53635;48.212;11.530;2022-07-22T13:02:52;6.03;;;3.70;;
66723;SDS011;53635;48.212;11.530;2022-07-22T13:05:17;11.50;;;4.00;;
66723;SDS011;53635;48.212;11.530;2022-07-22T13:07:43;7.32;;;4.00;;
66723;SDS011;53635;48.212;11.530;2022-07-22T13:10:09;7.68;;;3.65;;
66723;SDS011;53635;48.212;11.530;2022-07-22T13:12:34;7.40;;;3.60;;
66723;SDS011;53635;48.212;11.530;2022-07-22T13:15:00;9.13;;;3.73;;
66723;SDS011;53635;48.212;11.530;2022-07-22T13:17:25;8.25;;;3.95;;
66723;SDS011;53635;48.212;11.530;2022-07-22T13:19:50;9.53;;;3.80;;
66723;SDS011;53635;48.212;11.530;2022-07-22T13:22:16;8.13;;;3.97;;
66723;SDS011;53635;48.212;11.530;2022-07-22T13:24:41;7.10;;;4.45;;
66723;SDS011;53635;48.212;11.530;2022-07-22T13:27:06;8.25;;;3.85;;
66723;SDS011;53635;48.212;11.530;2022-07-22T13:29:32;8.63;;;3.80;;
66723;SDS011;53635;48.212;11.530;2022-07-22T13:31:57;6.50;;;3.97;;
66723;SDS011;53635;48.212;11.530;2022-07-22T13:34:22;6.80;;;4.20;;
66723;SDS011;53635;48.212;11.530;2022-07-22T13:36:47;10.23;;;3.73;;
66723;SDS011;53635;48.212;11.530;2022-07-22T13:39:13;6.90;;;4.00;;
66723;SDS011;53635;48.212;11.530;2022-07-22T13:41:38;5.20;;;3.90;;
66723;SDS011;53635;48.212;11.530;2022-07-22T13:44:04;6.05;;;4.20;;
66723;SDS011;53635;48.212;11.530;2022-07-22T13:46:33;5.80;;;3.90;;
66723;SDS011;53635;48.212;11.530;2022-07-22T13:48:58;5.38;;;4.13;;
66723;SDS011;53635;48.212;11.530;2022-07-22T13:51:23;7.07;;;4.07;;
66723;SDS011;53635;48.212;11.530;2022-07-22T13:53:49;6.67;;;4.03;;
66723;SDS011;53635;48.212;11.530;2022-07-22T13:56:14;6.27;;;3.63;;
66723;SDS011;53635;48.212;11.530;2022-07-22T13:58:39;7.63;;;3.95;;
66723;SDS011;53635;48.212;11.530;2022-07-22T14:01:08;7.13;;;4.30;;
66723;SDS011;53635;48.212;11.530;2022-07-22T14:03:34;7.57;;;3.90;;
66723;SDS011;53635;48.212;11.530;2022-07-22T14:06:00;4.82;;;3.80;;
66723;SDS011;53635;48.212;11.530;2022-07-22T14:08:25;5.40;;;3.83;;
66723;SDS011;53635;48.212;11.530;2022-07-22T14:10:50;6.10;;;3.97;;
66723;SDS011;53635;48.212;11.530;2022-07-22T14:13:16;9.27;;;4.73;;
66723;SDS011;53635;48.212;11.530;2022-07-22T14:15:41;8.65;;;4.38;;
66723;SDS011;53635;48.212;11.530;2022-07-22T14:18:06;8.53;;;4.37;;
66723;SDS011;53635;48.212;11.530;2022-07-22T14:20:32;5.83;;;4.20;;
66723;SDS011;53635;48.212;11.530;2022-07-22T14:22:58;6.13;;;4.45;;
66723;SDS011;53635;48.212;11.530;2022-07-22T14:25:23;7.93;;;4.40;;
66723;SDS011;53635;48.212;11.530;2022-07-22T14:27:48;24.15;;;7.95;;
66723;SDS011;53635;48.212;11.530;2022-07-22T14:30:14;8.97;;;4.67;;
66723;SDS011;53635;48.212;11.530;2022-07-22T14:32:39;11.70;;;4.73;;
66723;SDS011;53635;48.212;11.530;2022-07-22T14:35:04;8.47;;;4.10;;